Time;durP1;ratioP1;P1;durP2;ratioP2;P2;SDS_P1;SDS_P2;PMS_P1;PMS_P2;Temp;Humidity;BMP_temperature;BMP_pressure;BME280_temperature;BME280_humidity;BME280_pressure;Samples;Min_cycle;Max_cycle;Signal;HPM_P1;HPM_P2
2021/01/16 00:00:39;;;;;;;1.80;1.70;;;-3.00;99.90;;;;;;4837813;29;20438;-82
2021/01/16 00:03:10;;;;;;;1.60;1.50;;;-3.00;99.90;;;;;;4862757;29;20459;-83
2021/01/16 00:05:35;;;;;;;1.60;1.50;;;-3.00;99.90;;;;;;4942870;28;20412;-82
2021/01/16 00:08:04;;;;;;;1.97;1.60;;;-3.00;99.90;;;;;;4932015;28;20510;-83
2021/01/16 00:10:30;;;;;;;1.77;1.67;;;-3.10;99.90;;;;;;4978149;28;20402;-81
2021/01/16 00:12:57;;;;;;;1.77;1.67;;;-3.00;99.90;;;;;;4914614;29;20407;-84
2021/01/16 00:15:22;;;;;;;1.70;1.60;;;-3.00;99.90;;;;;;4853469;29;20410;-84
2021/01/16 00:18:05;;;;;;;2.10;1.75;;;-3.10;99.90;;;;;;4839108;29;20950;-82
2021/01/16 00:20:35;;;;;;;3.25;1.70;;;-3.00;99.90;;;;;;4963976;28;20402;-82
2021/01/16 00:23:01;;;;;;;1.80;1.70;;;-3.10;99.90;;;;;;4935706;28;20400;-82
2021/01/16 00:25:27;;;;;;;2.03;1.83;;;-3.00;99.90;;;;;;4927187;28;20475;-84
2021/01/16 00:27:52;;;;;;;1.90;1.80;;;-3.10;99.90;;;;;;4941234;28;20396;-82
2021/01/16 00:30:20;;;;;;;1.63;1.50;;;-3.00;99.90;;;;;;4910808;28;20399;-83
2021/01/16 00:32:46;;;;;;;1.52;1.42;;;-3.00;99.90;;;;;;4830894;29;20416;-83
2021/01/16 00:35:14;;;;;;;1.80;1.70;;;-2.90;99.90;;;;;;4844432;28;20417;-82
2021/01/16 00:37:39;;;;;;;2.78;1.77;;;-2.90;99.90;;;;;;4844059;29;20508;-82
2021/01/16 00:40:10;;;;;;;1.50;1.40;;;-3.00;99.90;;;;;;4843313;28;20428;-82
2021/01/16 00:42:46;;;;;;;1.60;1.50;;;-3.10;99.90;;;;;;4843367;28;20455;-81
2021/01/16 00:45:12;;;;;;;1.65;1.55;;;-3.10;99.90;;;;;;4923796;28;20396;-82
2021/01/16 00:47:38;;;;;;;1.80;1.70;;;-3.10;99.90;;;;;;4829362;29;20441;-83
2021/01/16 00:50:08;;;;;;;1.80;1.70;;;-3.10;99.90;;;;;;4842989;28;20459;-81
2021/01/16 00:52:34;;;;;;;2.87;1.80;;;-3.00;99.90;;;;;;4846452;29;20429;-83
2021/01/16 00:55:00;;;;;;;2.07;1.80;;;-3.00;99.90;;;;;;4828221;28;20412;-84
2021/01/16 00:57:26;;;;;;;1.73;1.63;;;-3.00;99.90;;;;;;4844617;28;21021;-82
2021/01/16 00:59:52;;;;;;;1.65;1.55;;;-3.00;99.90;;;;;;4844939;28;20409;-87
2021/01/16 01:02:18;;;;;;;1.80;1.70;;;-3.00;99.90;;;;;;4851417;28;20485;-82
2021/01/16 01:04:44;;;;;;;2.22;1.85;;;-3.00;99.90;;;;;;4848625;29;20397;-82
2021/01/16 01:07:11;;;;;;;2.10;1.63;;;-3.00;99.90;;;;;;4846129;28;20401;-82
2021/01/16 01:09:38;;;;;;;2.03;1.83;;;-3.00;99.90;;;;;;4846648;29;20404;-81
2021/01/16 01:12:04;;;;;;;1.90;1.67;;;-3.00;99.90;;;;;;4845835;28;20409;-82
2021/01/16 01:14:30;;;;;;;1.83;1.73;;;-3.00;99.90;;;;;;4847154;28;20501;-83
2021/01/16 01:16:56;;;;;;;2.00;1.80;;;-3.00;99.90;;;;;;4845320;28;20495;-81
2021/01/16 01:19:21;;;;;;;2.03;1.50;;;-3.10;99.90;;;;;;4845746;28;20397;-80
2021/01/16 01:21:47;;;;;;;1.83;1.73;;;-3.10;99.90;;;;;;4845134;29;20980;-81
2021/01/16 01:24:13;;;;;;;2.30;1.70;;;-3.20;99.90;;;;;;4843827;28;20412;-82
2021/01/16 01:26:39;;;;;;;1.63;1.53;;;-3.10;99.90;;;;;;4860005;28;20777;-82
2021/01/16 01:29:05;;;;;;;1.90;1.75;;;-3.10;99.90;;;;;;4846334;28;20441;-81
2021/01/16 01:31:31;;;;;;;1.70;1.60;;;-3.10;99.90;;;;;;4844424;29;20403;-82
2021/01/16 01:33:56;;;;;;;2.15;1.95;;;-3.00;99.90;;;;;;4859280;29;20410;-81
2021/01/16 01:36:22;;;;;;;1.60;1.50;;;-3.00;99.90;;;;;;4873229;29;20398;-83
2021/01/16 01:38:48;;;;;;;2.30;1.80;;;-3.00;99.90;;;;;;4942841;28;20411;-81
2021/01/16 01:41:13;;;;;;;3.00;1.70;;;-3.00;99.90;;;;;;4926252;28;21101;-84
2021/01/16 01:43:39;;;;;;;1.60;1.50;;;-3.00;99.90;;;;;;4945827;28;20397;-81
2021/01/16 01:46:05;;;;;;;1.70;1.60;;;-3.00;99.90;;;;;;4904871;28;20555;-82
2021/01/16 01:48:32;;;;;;;1.90;1.70;;;-3.00;99.90;;;;;;4845378;29;20410;-82
2021/01/16 01:51:01;;;;;;;1.73;1.63;;;-3.00;99.90;;;;;;4848622;29;20399;-83
2021/01/16 01:53:30;;;;;;;2.40;1.90;;;-3.00;99.90;;;;;;4862524;29;20486;-82
2021/01/16 01:55:56;;;;;;;1.92;1.83;;;-3.10;99.90;;;;;;4844567;29;20895;-82
2021/01/16 01:58:25;;;;;;;2.38;1.98;;;-3.10;99.90;;;;;;4940059;28;20406;-81
2021/01/16 02:00:54;;;;;;;1.88;1.70;;;-3.10;99.90;;;;;;4920547;28;20441;-81
2021/01/16 02:03:23;;;;;;;1.80;1.70;;;-3.10;99.90;;;;;;4859232;29;20410;-82
2021/01/16 02:05:53;;;;;;;1.70;1.60;;;-3.00;99.90;;;;;;4843575;29;21102;-83
2021/01/16 02:08:19;;;;;;;2.00;1.90;;;-3.10;99.90;;;;;;4923240;29;20431;-81
2021/01/16 02:10:44;;;;;;;2.00;1.80;;;-3.10;99.90;;;;;;4857984;29;20414;-82
2021/01/16 02:13:10;;;;;;;1.70;1.60;;;-3.20;99.90;;;;;;4836510;29;20418;-82
2021/01/16 02:15:36;;;;;;;1.80;1.70;;;-3.20;99.90;;;;;;4906700;29;20955;-82
2021/01/16 02:18:29;;;;;;;1.57;1.47;;;-3.20;99.90;;;;;;4840936;29;20407;-80
2021/01/16 02:20:55;;;;;;;1.65;1.55;;;-3.20;99.90;;;;;;4841872;29;20446;-83
2021/01/16 02:23:34;;;;;;;1.60;1.50;;;-3.20;99.90;;;;;;4842409;29;20474;-81
2021/01/16 02:26:24;;;;;;;1.77;1.67;;;-3.20;99.90;;;;;;4842260;29;20485;-82
2021/01/16 02:28:53;;;;;;;1.63;1.52;;;-3.20;99.90;;;;;;4855054;29;20413;-83
2021/01/16 02:31:18;;;;;;;1.95;1.60;;;-3.20;99.90;;;;;;4826790;29;20414;-82
2021/01/16 02:33:45;;;;;;;1.90;1.45;;;-3.20;99.90;;;;;;4845487;29;20488;-83
2021/01/16 02:36:21;;;;;;;1.63;1.52;;;-3.20;99.90;;;;;;4849296;29;20449;-82
2021/01/16 02:39:35;;;;;;;1.98;1.80;;;-3.20;99.90;;;;;;4848762;29;20764;-84
2021/01/16 02:42:11;;;;;;;1.70;1.60;;;-3.20;99.90;;;;;;4904194;29;20680;-82
2021/01/16 02:44:37;;;;;;;1.65;1.55;;;-3.30;99.90;;;;;;4923810;29;20398;-83
2021/01/16 02:47:16;;;;;;;1.60;1.50;;;-3.20;99.90;;;;;;4879971;28;20395;-82
2021/01/16 02:50:05;;;;;;;1.50;1.40;;;-3.20;99.90;;;;;;4827621;29;20461;-84
2021/01/16 02:52:40;;;;;;;1.70;1.60;;;-3.30;99.90;;;;;;4828465;29;20426;-81
2021/01/16 02:55:07;;;;;;;1.65;1.55;;;-3.30;99.90;;;;;;4878133;29;20462;-82
2021/01/16 02:57:33;;;;;;;1.77;1.58;;;-3.30;99.90;;;;;;4819376;28;20418;-81
2021/01/16 02:59:59;;;;;;;2.33;1.83;;;-3.20;99.90;;;;;;4840955;29;20784;-80
2021/01/16 03:02:24;;;;;;;1.60;1.50;;;-3.20;99.90;;;;;;4843786;29;20401;-80
2021/01/16 03:04:50;;;;;;;3.07;1.77;;;-3.20;99.90;;;;;;4859448;28;20419;-84
2021/01/16 03:07:16;;;;;;;1.95;1.80;;;-3.20;99.90;;;;;;4846390;29;21070;-80
2021/01/16 03:09:42;;;;;;;1.92;1.75;;;-3.20;99.90;;;;;;4844700;28;20479;-84
2021/01/16 03:12:08;;;;;;;2.03;1.85;;;-3.20;99.90;;;;;;4842749;29;20438;-81
2021/01/16 03:14:44;;;;;;;2.03;1.83;;;-3.20;99.90;;;;;;4856514;29;21008;-81
2021/01/16 03:17:14;;;;;;;2.05;1.95;;;-3.20;99.90;;;;;;4841516;29;20415;-83
2021/01/16 03:19:47;;;;;;;2.20;2.00;;;-3.20;99.90;;;;;;4845735;28;20409;-83
2021/01/16 03:22:19;;;;;;;2.10;1.80;;;-3.20;99.90;;;;;;4850964;29;20802;-82
2021/01/16 03:24:49;;;;;;;2.22;2.03;;;-3.30;99.90;;;;;;4862562;29;20409;-80
2021/01/16 03:27:15;;;;;;;2.63;1.88;;;-3.20;99.90;;;;;;4846728;29;20429;-82
2021/01/16 03:29:41;;;;;;;2.60;1.92;;;-3.20;99.90;;;;;;4845481;29;20935;-84
2021/01/16 03:32:07;;;;;;;1.90;1.75;;;-3.20;99.90;;;;;;4838993;29;20421;-82
2021/01/16 03:34:33;;;;;;;1.80;1.70;;;-3.20;99.90;;;;;;4840073;29;20426;-82
2021/01/16 03:36:59;;;;;;;2.03;1.83;;;-3.20;99.90;;;;;;4827369;29;20406;-82
2021/01/16 03:39:24;;;;;;;2.20;1.85;;;-3.20;99.90;;;;;;4825650;29;20403;-81
2021/01/16 03:41:50;;;;;;;1.77;1.63;;;-3.20;99.90;;;;;;4826786;29;20447;-82
2021/01/16 03:44:16;;;;;;;2.10;1.90;;;-3.20;99.90;;;;;;4823914;29;20410;-84
2021/01/16 03:46:42;;;;;;;1.87;1.77;;;-3.20;99.90;;;;;;4825036;29;20407;-82
2021/01/16 03:49:07;;;;;;;2.00;1.83;;;-3.20;99.90;;;;;;4826085;29;20403;-82
2021/01/16 03:51:33;;;;;;;2.40;1.90;;;-3.20;99.90;;;;;;4843231;29;20397;-81
2021/01/16 03:53:59;;;;;;;2.20;2.00;;;-3.20;99.90;;;;;;4859835;29;20450;-80
2021/01/16 03:56:24;;;;;;;2.03;1.87;;;-3.20;99.90;;;;;;4852164;29;20413;-81
2021/01/16 03:58:50;;;;;;;2.28;1.70;;;-3.20;99.90;;;;;;4854040;29;20438;-80
2021/01/16 04:01:16;;;;;;;2.85;2.10;;;-3.20;99.90;;;;;;4842573;29;20418;-79
2021/01/16 04:03:41;;;;;;;1.97;1.77;;;-3.20;99.90;;;;;;4913462;29;20813;-80
2021/01/16 04:06:07;;;;;;;1.80;1.70;;;-3.20;99.90;;;;;;4812536;29;20504;-81
2021/01/16 04:08:33;;;;;;;1.95;1.83;;;-3.20;99.90;;;;;;4847803;29;20432;-82
2021/01/16 04:10:58;;;;;;;1.80;1.70;;;-3.30;99.90;;;;;;4906719;29;20422;-82
2021/01/16 04:13:24;;;;;;;2.60;1.87;;;-3.20;99.90;;;;;;4826854;29;20434;-86
2021/01/16 04:15:50;;;;;;;2.13;1.70;;;-3.20;99.90;;;;;;4837521;29;20442;-80
2021/01/16 04:18:15;;;;;;;1.80;1.70;;;-3.30;99.90;;;;;;4840574;29;20437;-81
2021/01/16 04:20:41;;;;;;;2.10;1.77;;;-3.20;99.90;;;;;;4841630;29;20413;-82
2021/01/16 04:23:07;;;;;;;2.27;2.07;;;-3.20;99.90;;;;;;4829940;29;20422;-81
2021/01/16 04:25:33;;;;;;;2.05;1.73;;;-3.20;99.90;;;;;;4843273;29;20467;-86
2021/01/16 04:27:59;;;;;;;1.80;1.70;;;-3.30;99.90;;;;;;4911397;29;20435;-83
2021/01/16 04:30:25;;;;;;;4.15;2.00;;;-3.10;99.90;;;;;;4911486;29;20981;-83
2021/01/16 04:32:51;;;;;;;1.83;1.73;;;-3.10;99.90;;;;;;4905883;29;20444;-84
2021/01/16 04:35:17;;;;;;;2.42;2.00;;;-3.20;99.90;;;;;;4842718;29;20404;-81
2021/01/16 04:37:44;;;;;;;1.87;1.77;;;-3.20;99.90;;;;;;4865370;29;20408;-82
2021/01/16 04:40:10;;;;;;;2.20;2.00;;;-3.20;99.90;;;;;;4853777;29;20540;-83
2021/01/16 04:42:39;;;;;;;2.03;1.83;;;-3.20;99.90;;;;;;4850749;29;20404;-83
2021/01/16 04:45:05;;;;;;;2.00;1.80;;;-3.00;99.90;;;;;;4839746;29;20525;-82
2021/01/16 04:47:31;;;;;;;1.80;1.70;;;-3.20;99.90;;;;;;4839897;29;20411;-83
2021/01/16 04:49:58;;;;;;;1.80;1.70;;;-3.00;99.90;;;;;;4835851;29;20405;-81
2021/01/16 04:52:25;;;;;;;2.30;2.05;;;-3.10;99.90;;;;;;4851935;29;20956;-87
2021/01/16 04:54:54;;;;;;;2.47;1.98;;;-3.10;99.90;;;;;;4845183;29;20484;-83
2021/01/16 04:57:22;;;;;;;2.00;1.85;;;-3.20;99.90;;;;;;4842712;29;20397;-87
2021/01/16 04:59:47;;;;;;;2.22;1.77;;;-3.10;99.90;;;;;;4839295;29;20441;-82
2021/01/16 05:02:13;;;;;;;1.80;1.70;;;-3.10;99.90;;;;;;4918597;29;20397;-82
2021/01/16 05:04:39;;;;;;;1.73;1.63;;;-3.20;99.90;;;;;;4898727;29;20401;-84
2021/01/16 05:07:06;;;;;;;1.77;1.67;;;-3.20;99.90;;;;;;4881575;29;20541;-78
2021/01/16 05:09:33;;;;;;;2.20;1.98;;;-3.10;99.90;;;;;;4861426;29;20419;-80
2021/01/16 05:12:36;;;;;;;1.80;1.70;;;-3.20;99.90;;;;;;4876723;28;20504;-79
2021/01/16 05:15:04;;;;;;;1.92;1.70;;;-3.20;99.90;;;;;;4965317;28;20407;-77
2021/01/16 05:17:30;;;;;;;2.13;1.92;;;-3.20;99.90;;;;;;4848561;28;20408;-81
2021/01/16 05:19:56;;;;;;;1.75;1.65;;;-3.20;99.90;;;;;;4844559;29;21014;-79
2021/01/16 05:22:22;;;;;;;2.10;1.77;;;-3.20;99.90;;;;;;4944483;28;20799;-78
2021/01/16 05:24:47;;;;;;;2.17;1.97;;;-3.20;99.90;;;;;;4940556;28;20471;-80
2021/01/16 05:27:19;;;;;;;1.87;1.73;;;-3.20;99.90;;;;;;4922092;29;20835;-79
2021/01/16 05:29:45;;;;;;;2.70;2.05;;;-3.20;99.90;;;;;;4942750;28;20408;-79
2021/01/16 05:32:11;;;;;;;2.05;1.92;;;-3.20;99.90;;;;;;4892454;28;20416;-79
2021/01/16 05:34:36;;;;;;;2.30;2.10;;;-3.20;99.90;;;;;;4830611;28;20389;-79
2021/01/16 05:37:02;;;;;;;2.10;1.97;;;-3.20;99.90;;;;;;4845387;28;20751;-80
2021/01/16 05:39:29;;;;;;;2.30;2.10;;;-3.20;99.90;;;;;;4941722;28;20436;-79
2021/01/16 05:42:05;;;;;;;1.90;1.80;;;-3.20;99.90;;;;;;4968276;28;20387;-81
2021/01/16 05:44:31;;;;;;;3.17;1.90;;;-3.30;99.90;;;;;;4929291;28;20483;-78
2021/01/16 05:46:57;;;;;;;3.47;2.23;;;-3.20;99.90;;;;;;4869484;28;20409;-78
2021/01/16 05:49:23;;;;;;;2.05;1.83;;;-3.20;99.90;;;;;;4856986;29;20416;-80
2021/01/16 05:51:49;;;;;;;2.50;2.30;;;-3.20;99.90;;;;;;4841907;29;20432;-80
2021/01/16 05:54:16;;;;;;;2.28;2.08;;;-3.20;99.90;;;;;;4907561;28;20944;-79
2021/01/16 05:56:42;;;;;;;2.00;1.80;;;-3.30;99.90;;;;;;4836383;29;20447;-78
2021/01/16 05:59:16;;;;;;;2.00;1.90;;;-3.20;99.90;;;;;;4873153;28;20399;-79
2021/01/16 06:01:44;;;;;;;2.08;1.90;;;-3.30;99.90;;;;;;4863615;28;20488;-79
2021/01/16 06:04:14;;;;;;;2.80;1.98;;;-3.30;99.90;;;;;;4912268;28;20840;-78
2021/01/16 06:06:40;;;;;;;2.92;2.38;;;-3.30;99.90;;;;;;4822541;29;20411;-79
2021/01/16 06:09:06;;;;;;;2.38;2.08;;;-3.30;99.90;;;;;;4841340;28;20395;-78
2021/01/16 06:11:37;;;;;;;2.30;2.10;;;-3.10;99.90;;;;;;4840836;29;20419;-78
2021/01/16 06:14:02;;;;;;;2.15;1.95;;;-3.30;99.90;;;;;;4825212;28;20422;-78
2021/01/16 06:16:28;;;;;;;2.40;2.20;;;-3.20;99.90;;;;;;4840854;29;20770;-78
2021/01/16 06:18:57;;;;;;;2.40;2.20;;;-3.30;99.90;;;;;;4838731;28;20407;-80
2021/01/16 06:21:24;;;;;;;2.30;2.10;;;-3.30;99.90;;;;;;4872007;28;20401;-80
2021/01/16 06:23:56;;;;;;;2.83;2.50;;;-3.20;99.90;;;;;;4937434;28;20461;-79
2021/01/16 06:26:22;;;;;;;2.20;2.00;;;-3.20;99.90;;;;;;4906371;28;20409;-82
2021/01/16 06:29:01;;;;;;;2.72;2.50;;;-3.20;99.90;;;;;;4925187;28;20769;-76
2021/01/16 06:31:31;;;;;;;2.55;2.35;;;-3.30;99.90;;;;;;4899307;28;20975;-78
2021/01/16 06:34:08;;;;;;;2.30;2.10;;;-3.30;99.90;;;;;;4838382;28;20498;-79
2021/01/16 06:36:34;;;;;;;2.35;2.10;;;-3.20;99.90;;;;;;4855282;28;20415;-79
2021/01/16 06:39:01;;;;;;;2.50;2.30;;;-3.30;99.90;;;;;;4822019;29;20418;-78
2021/01/16 06:41:31;;;;;;;2.70;2.40;;;-3.30;99.90;;;;;;4832503;28;20423;-79
2021/01/16 06:43:57;;;;;;;4.32;3.50;;;-3.30;99.90;;;;;;4838482;28;20407;-78
2021/01/16 06:46:45;;;;;;;5.50;4.28;;;-3.30;99.90;;;;;;4825374;28;20752;-78
2021/01/16 06:49:24;;;;;;;4.25;3.28;;;-3.30;99.90;;;;;;4825021;29;20410;-79
2021/01/16 06:51:53;;;;;;;3.30;3.00;;;-3.30;99.90;;;;;;4825001;29;20454;-82
2021/01/16 06:54:23;;;;;;;3.35;3.05;;;-3.30;99.90;;;;;;4898642;29;20433;-78
2021/01/16 06:57:00;;;;;;;3.22;2.90;;;-3.30;99.90;;;;;;4814488;29;20414;-78
2021/01/16 06:59:26;;;;;;;3.97;3.15;;;-3.30;99.90;;;;;;4823810;29;20430;-79
2021/01/16 07:01:52;;;;;;;4.23;3.43;;;-3.20;99.90;;;;;;4822188;29;20523;-80
2021/01/16 07:04:17;;;;;;;3.43;3.13;;;-3.30;99.90;;;;;;4823234;29;20501;-78
2021/01/16 07:06:49;;;;;;;3.53;3.22;;;-3.20;99.90;;;;;;4823208;29;20531;-78
2021/01/16 07:09:20;;;;;;;4.55;4.00;;;-3.30;99.90;;;;;;4868442;29;20407;-79
2021/01/16 07:11:47;;;;;;;3.45;3.15;;;-3.30;99.90;;;;;;4892605;29;20431;-80
2021/01/16 07:14:13;;;;;;;3.97;3.65;;;-3.30;99.90;;;;;;4812024;29;20981;-78
2021/01/16 07:16:43;;;;;;;3.78;3.42;;;-3.20;99.90;;;;;;4824938;29;20410;-79
2021/01/16 07:19:10;;;;;;;5.13;3.08;;;-3.20;99.90;;;;;;4826120;29;20406;-80
2021/01/16 07:21:40;;;;;;;3.90;3.15;;;-3.20;99.90;;;;;;4822858;29;20406;-79
2021/01/16 07:24:10;;;;;;;3.83;3.25;;;-3.30;99.90;;;;;;4825866;29;20483;-79
2021/01/16 07:26:36;;;;;;;3.28;2.70;;;-3.30;99.90;;;;;;4824194;29;20410;-78
2021/01/16 07:29:09;;;;;;;3.53;3.22;;;-3.30;99.90;;;;;;4828646;28;20488;-78
2021/01/16 07:31:40;;;;;;;3.85;3.10;;;-3.30;99.90;;;;;;4837947;29;20411;-78
2021/01/16 07:34:09;;;;;;;4.30;3.13;;;-3.30;99.90;;;;;;4796462;29;20431;-80
2021/01/16 07:36:38;;;;;;;3.60;3.28;;;-3.30;99.90;;;;;;4890947;28;20453;-82
2021/01/16 07:39:08;;;;;;;6.25;4.50;;;-3.20;99.90;;;;;;4859229;29;20401;-81
2021/01/16 07:41:36;;;;;;;4.10;3.30;;;-3.20;99.90;;;;;;4846781;28;20421;-81
2021/01/16 07:44:05;;;;;;;3.90;3.50;;;-3.20;99.90;;;;;;4819164;29;20771;-77
2021/01/16 07:46:31;;;;;;;3.95;3.33;;;-3.20;99.90;;;;;;4855601;28;20464;-77
2021/01/16 07:48:57;;;;;;;5.57;4.10;;;-3.20;99.90;;;;;;4823335;29;20438;-76
2021/01/16 07:51:30;;;;;;;3.42;3.13;;;-3.20;99.90;;;;;;4854403;28;21004;-77
2021/01/16 07:53:55;;;;;;;3.40;3.10;;;-3.20;99.90;;;;;;4855838;29;20918;-76
2021/01/16 07:56:22;;;;;;;4.60;3.80;;;-3.20;99.90;;;;;;4852696;28;20549;-76
2021/01/16 07:59:09;;;;;;;3.80;3.40;;;-3.20;99.90;;;;;;4839931;29;20419;-78
2021/01/16 08:01:45;;;;;;;4.00;3.50;;;-3.20;99.90;;;;;;4894249;28;20480;-79
2021/01/16 08:04:26;;;;;;;3.53;3.20;;;-3.20;99.90;;;;;;4949193;28;20395;-76
2021/01/16 08:07:08;;;;;;;4.45;3.72;;;-3.10;99.90;;;;;;4916655;29;20421;-80
2021/01/16 08:09:47;;;;;;;4.32;3.85;;;-3.10;99.90;;;;;;4939389;28;20476;-76
2021/01/16 08:12:13;;;;;;;4.40;3.13;;;-3.10;99.90;;;;;;4924676;29;20440;-76
2021/01/16 08:14:39;;;;;;;3.77;3.40;;;-3.10;99.90;;;;;;4980711;28;20979;-76
2021/01/16 08:17:05;;;;;;;5.95;3.90;;;-3.00;99.90;;;;;;4859291;28;20842;-75
2021/01/16 08:20:00;;;;;;;4.03;3.55;;;-3.00;99.90;;;;;;4834272;29;20517;-77
2021/01/16 08:22:38;;;;;;;3.70;3.30;;;-3.00;99.90;;;;;;4974802;28;20437;-76
2021/01/16 08:25:05;;;;;;;3.80;3.50;;;-3.00;99.90;;;;;;4934683;28;20436;-76
2021/01/16 08:27:34;;;;;;;3.45;3.08;;;-2.90;99.90;;;;;;4926229;29;20423;-76
2021/01/16 08:30:07;;;;;;;3.63;3.33;;;-3.00;99.90;;;;;;4866230;28;20408;-76
2021/01/16 08:32:33;;;;;;;14.68;10.65;;;-3.00;99.90;;;;;;4834789;28;20445;-78
2021/01/16 08:35:01;;;;;;;5.65;3.92;;;-3.00;99.90;;;;;;4834517;28;20401;-76
2021/01/16 08:37:31;;;;;;;4.32;3.25;;;-2.90;99.90;;;;;;4839183;29;20427;-76
2021/01/16 08:39:58;;;;;;;4.22;3.70;;;-2.90;99.90;;;;;;4926472;29;20400;-78
2021/01/16 08:42:28;;;;;;;5.88;3.97;;;-2.90;99.90;;;;;;4909632;28;20406;-76
2021/01/16 08:44:55;;;;;;;3.65;3.30;;;-2.90;99.90;;;;;;4847608;28;20944;-76
2021/01/16 08:47:21;;;;;;;3.72;3.33;;;-2.90;99.90;;;;;;4839990;29;20516;-80
2021/01/16 08:49:47;;;;;;;4.10;3.67;;;-2.80;99.90;;;;;;4825043;28;20504;-77
2021/01/16 08:52:28;;;;;;;3.78;3.35;;;-2.80;99.90;;;;;;4844552;29;20418;-76
2021/01/16 08:55:00;;;;;;;4.10;3.70;;;-2.70;99.90;;;;;;4948953;28;20619;-76
2021/01/16 08:57:33;;;;;;;4.32;3.60;;;-2.70;99.90;;;;;;4937061;28;20416;-76
2021/01/16 09:00:18;;;;;;;5.82;3.67;;;-2.70;99.90;;;;;;4919550;28;20402;-75
2021/01/16 09:03:06;;;;;;;6.55;4.82;;;-2.70;99.90;;;;;;4854551;29;20417;-78
2021/01/16 09:05:33;;;;;;;6.55;4.60;;;-2.60;99.90;;;;;;4849302;29;20418;-75
2021/01/16 09:07:59;;;;;;;4.15;3.67;;;-2.60;99.90;;;;;;4842588;28;20413;-77
2021/01/16 09:10:25;;;;;;;3.58;3.28;;;-2.60;99.90;;;;;;4854757;29;20416;-80
2021/01/16 09:12:51;;;;;;;4.10;3.47;;;-2.60;99.90;;;;;;4858300;29;20818;-78
2021/01/16 09:15:25;;;;;;;3.90;3.50;;;-2.60;99.90;;;;;;4854114;28;20472;-77
2021/01/16 09:17:59;;;;;;;3.92;3.53;;;-2.60;99.90;;;;;;4951477;28;20432;-76
2021/01/16 09:20:25;;;;;;;5.50;3.35;;;-2.50;99.90;;;;;;4949889;28;20404;-77
2021/01/16 09:22:51;;;;;;;5.45;3.90;;;-2.50;99.90;;;;;;4934607;28;20796;-79
2021/01/16 09:25:26;;;;;;;4.27;3.73;;;-2.40;99.90;;;;;;4913888;28;20399;-79
2021/01/16 09:27:52;;;;;;;5.57;3.97;;;-2.40;99.90;;;;;;4937921;28;20415;-75
2021/01/16 09:30:22;;;;;;;4.38;3.72;;;-2.30;99.90;;;;;;4929229;28;20422;-76
2021/01/16 09:32:48;;;;;;;4.40;3.58;;;-2.30;99.90;;;;;;4857696;28;20500;-82
2021/01/16 09:35:14;;;;;;;4.10;3.70;;;-2.30;99.90;;;;;;4872379;28;20495;-77
2021/01/16 09:37:40;;;;;;;4.82;3.70;;;-2.30;99.90;;;;;;4935004;28;20960;-78
2021/01/16 09:40:08;;;;;;;3.80;3.45;;;-2.30;99.90;;;;;;4926990;29;20795;-75
2021/01/16 09:42:47;;;;;;;4.82;3.60;;;-2.30;99.90;;;;;;4927061;28;20411;-79
2021/01/16 09:45:14;;;;;;;4.85;4.10;;;-2.30;99.90;;;;;;4931246;28;20493;-75
2021/01/16 09:47:44;;;;;;;4.18;3.72;;;-2.20;99.90;;;;;;4892531;28;20411;-79
2021/01/16 09:50:11;;;;;;;4.60;3.80;;;-2.20;99.90;;;;;;4860005;29;20436;-75
2021/01/16 09:52:47;;;;;;;4.05;3.45;;;-2.20;99.90;;;;;;4915938;28;20490;-75
2021/01/16 09:55:16;;;;;;;4.07;3.67;;;-2.20;99.90;;;;;;4875753;28;20535;-75
2021/01/16 09:57:43;;;;;;;4.78;3.92;;;-2.20;99.90;;;;;;4860163;29;20413;-75
2021/01/16 10:00:18;;;;;;;3.90;3.55;;;-2.20;99.90;;;;;;4860983;28;20473;-77
2021/01/16 10:02:47;;;;;;;4.03;3.50;;;-2.20;99.90;;;;;;4839965;28;20432;-76
2021/01/16 10:05:32;;;;;;;5.25;3.95;;;-2.00;99.90;;;;;;4863632;29;20396;-75
2021/01/16 10:07:58;;;;;;;5.25;3.72;;;-2.10;99.90;;;;;;4836750;29;20433;-76
2021/01/16 10:10:24;;;;;;;5.35;4.03;;;-2.10;99.90;;;;;;4893222;29;20410;-80
2021/01/16 10:12:56;;;;;;;4.53;3.50;;;-2.00;99.90;;;;;;4910590;28;20467;-81
2021/01/16 10:15:29;;;;;;;6.45;4.38;;;-2.00;99.90;;;;;;4928519;28;22366;-75
2021/01/16 10:17:56;;;;;;;5.88;4.65;;;-1.90;99.90;;;;;;4860600;28;21171;-76
2021/01/16 10:20:29;;;;;;;4.20;3.80;;;-1.90;99.90;;;;;;4836209;28;20494;-82
2021/01/16 10:22:55;;;;;;;5.63;4.63;;;-2.00;99.90;;;;;;4855158;29;20523;-80
2021/01/16 10:25:21;;;;;;;5.47;4.20;;;-1.90;99.90;;;;;;4853046;28;20488;-77
2021/01/16 10:27:49;;;;;;;5.35;4.03;;;-1.90;99.90;;;;;;4840226;28;20412;-79
2021/01/16 10:30:25;;;;;;;4.88;4.20;;;-1.90;99.90;;;;;;4918703;28;20410;-81
2021/01/16 10:32:51;;;;;;;5.85;4.10;;;-1.90;99.90;;;;;;4896919;28;20429;-83
2021/01/16 10:35:24;;;;;;;4.43;4.03;;;-1.90;99.90;;;;;;4929562;28;20412;-77
2021/01/16 10:37:50;;;;;;;5.05;4.47;;;-1.90;99.90;;;;;;4841035;29;20415;-77
2021/01/16 10:40:16;;;;;;;4.05;3.60;;;-1.80;99.90;;;;;;4858226;28;20468;-77
2021/01/16 10:42:44;;;;;;;4.25;3.83;;;-1.90;99.90;;;;;;4840254;29;20413;-76
2021/01/16 10:45:10;;;;;;;4.85;3.70;;;-1.90;99.90;;;;;;4826894;28;20440;-75
2021/01/16 10:47:37;;;;;;;5.10;4.25;;;-1.80;99.90;;;;;;4820685;29;20413;-75
2021/01/16 10:50:05;;;;;;;4.38;3.90;;;-1.80;99.90;;;;;;4839508;28;20437;-79
2021/01/16 10:52:31;;;;;;;5.65;4.95;;;-1.80;99.90;;;;;;4866456;28;20428;-81
2021/01/16 10:54:58;;;;;;;4.78;3.55;;;-1.80;99.90;;;;;;4888400;29;20910;-75
2021/01/16 10:57:24;;;;;;;4.53;3.78;;;-1.70;99.90;;;;;;4910603;28;20408;-76
2021/01/16 10:59:54;;;;;;;4.25;3.80;;;-1.70;99.90;;;;;;4861131;29;20419;-76
2021/01/16 11:02:34;;;;;;;4.88;3.63;;;-1.70;99.90;;;;;;4854049;28;20460;-80
2021/01/16 11:05:06;;;;;;;5.15;4.40;;;-1.80;99.90;;;;;;4849415;28;20463;-80
2021/01/16 11:07:32;;;;;;;4.22;3.55;;;-1.70;99.90;;;;;;4864374;29;20427;-80
2021/01/16 11:10:18;;;;;;;4.22;3.83;;;-1.70;99.90;;;;;;4837538;28;20433;-76
2021/01/16 11:12:44;;;;;;;4.10;3.70;;;-1.70;99.90;;;;;;4922687;28;20482;-79
2021/01/16 11:15:16;;;;;;;5.25;3.92;;;-1.60;99.90;;;;;;4866770;28;20409;-77
2021/01/16 11:17:53;;;;;;;4.70;4.07;;;-1.60;99.90;;;;;;4862212;29;20425;-78
2021/01/16 11:20:27;;;;;;;4.93;4.00;;;-1.60;99.90;;;;;;4881591;28;20396;-79
2021/01/16 11:23:04;;;;;;;4.32;3.80;;;-1.60;99.90;;;;;;4943889;28;20429;-79
2021/01/16 11:25:42;;;;;;;4.83;4.10;;;-1.60;99.90;;;;;;4899872;28;20502;-79
2021/01/16 11:28:08;;;;;;;5.13;3.72;;;-1.60;99.90;;;;;;4888172;28;20461;-75
2021/01/16 11:30:39;;;;;;;5.07;4.00;;;-1.60;99.90;;;;;;4917262;28;20413;-75
2021/01/16 11:33:26;;;;;;;4.90;3.92;;;-1.60;99.90;;;;;;4844609;28;20456;-74
2021/01/16 11:36:04;;;;;;;5.10;4.22;;;-1.50;99.90;;;;;;4821956;29;20478;-75
2021/01/16 11:38:42;;;;;;;5.28;4.32;;;-1.60;99.90;;;;;;4857200;28;20508;-78
2021/01/16 11:41:09;;;;;;;4.57;4.13;;;-1.50;99.90;;;;;;4854422;29;20492;-75
2021/01/16 11:43:35;;;;;;;4.35;3.95;;;-1.60;99.90;;;;;;4842524;29;20410;-76
2021/01/16 11:46:14;;;;;;;4.57;4.05;;;-1.50;99.90;;;;;;4845162;28;20411;-74
2021/01/16 11:48:41;;;;;;;5.00;4.45;;;-1.60;99.90;;;;;;4919308;28;20426;-75
2021/01/16 11:51:18;;;;;;;5.20;4.55;;;-1.50;99.90;;;;;;4951093;28;20408;-75
2021/01/16 11:53:49;;;;;;;6.43;4.32;;;-1.60;99.90;;;;;;4924854;28;20406;-76
2021/01/16 11:56:18;;;;;;;4.93;4.38;;;-1.60;99.90;;;;;;4954955;28;20918;-82
2021/01/16 11:58:44;;;;;;;4.85;4.35;;;-1.50;99.90;;;;;;4920253;29;20412;-75
2021/01/16 12:01:14;;;;;;;5.90;4.40;;;-1.40;99.90;;;;;;4860546;28;20496;-79
2021/01/16 12:03:40;;;;;;;4.60;4.13;;;-1.40;99.90;;;;;;4848848;29;20408;-77
2021/01/16 12:06:12;;;;;;;5.45;4.65;;;-1.40;99.90;;;;;;4842447;28;20424;-82
2021/01/16 12:08:38;;;;;;;5.13;4.35;;;-1.30;99.90;;;;;;4860700;29;20755;-83
2021/01/16 12:11:08;;;;;;;6.13;4.97;;;-1.30;99.90;;;;;;4858243;29;20432;-80
2021/01/16 12:13:34;;;;;;;5.35;4.47;;;-1.40;99.90;;;;;;4841449;29;20416;-82
2021/01/16 12:15:59;;;;;;;5.30;4.65;;;-1.40;99.90;;;;;;4859668;28;20778;-81
2021/01/16 12:18:25;;;;;;;6.20;4.70;;;-1.40;99.90;;;;;;4841636;29;20409;-81
2021/01/16 12:20:52;;;;;;;4.93;4.27;;;-1.30;99.90;;;;;;4849697;28;20431;-80
2021/01/16 12:23:19;;;;;;;5.43;4.32;;;-1.20;99.90;;;;;;4849072;28;20407;-76
2021/01/16 12:25:49;;;;;;;5.10;4.23;;;-1.20;99.90;;;;;;4849375;28;20409;-80
2021/01/16 12:28:15;;;;;;;5.40;4.90;;;-1.20;99.90;;;;;;4846461;28;20415;-78
2021/01/16 12:30:45;;;;;;;6.23;4.47;;;-1.20;99.90;;;;;;4870958;28;20518;-80
2021/01/16 12:33:23;;;;;;;4.55;4.15;;;-1.30;99.90;;;;;;4884670;28;20419;-77
2021/01/16 12:35:48;;;;;;;4.53;4.13;;;-1.30;99.90;;;;;;4967190;28;20469;-79
2021/01/16 12:38:14;;;;;;;4.60;4.15;;;-1.30;99.90;;;;;;4966291;28;20392;-76
2021/01/16 12:40:40;;;;;;;5.85;4.63;;;-1.30;99.90;;;;;;4959968;28;20481;-81
2021/01/16 12:43:12;;;;;;;4.95;4.28;;;-1.20;99.90;;;;;;4930316;28;20458;-80
2021/01/16 12:45:38;;;;;;;4.53;4.13;;;-1.20;99.90;;;;;;4926874;29;20407;-81
2021/01/16 12:48:04;;;;;;;6.23;5.10;;;-1.20;99.90;;;;;;4938514;28;20412;-79
2021/01/16 12:50:30;;;;;;;6.18;5.07;;;-1.20;99.90;;;;;;4862027;29;20416;-81
2021/01/16 12:52:56;;;;;;;9.95;7.10;;;-1.10;99.90;;;;;;4866061;29;20949;-75
2021/01/16 12:55:26;;;;;;;11.32;8.10;;;-1.20;99.90;;;;;;4860410;29;20443;-77